sensor_id;sensor_type;location;lat;lon;timestamp;P1;durP1;ratioP1;P2;durP2;ratioP2
21639;SDS011;10981;45.462;10.974;2023-05-20T00:01:07;6.72;;;4.70;;
21639;SDS011;10981;45.462;10.974;2023-05-20T00:03:35;7.65;;;5.25;;
21639;SDS011;10981;45.462;10.974;2023-05-20T00:06:04;7.25;;;5.57;;
21639;SDS011;10981;45.462;10.974;2023-05-20T00:08:32;7.32;;;5.50;;
21639;SDS011;10981;45.462;10.974;2023-05-20T00:11:00;9.52;;;5.70;;
21639;SDS011;10981;45.462;10.974;2023-05-20T00:13:29;9.88;;;5.28;;
21639;SDS011;10981;45.462;10.974;2023-05-20T00:15:57;7.88;;;5.57;;
21639;SDS011;10981;45.462;10.974;2023-05-20T00:18:26;8.77;;;5.07;;
21639;SDS011;10981;45.462;10.974;2023-05-20T00:20:54;5.75;;;4.75;;
21639;SDS011;10981;45.462;10.974;2023-05-20T00:23:22;7.43;;;5.50;;
21639;SDS011;10981;45.462;10.974;2023-05-20T00:25:51;7.10;;;5.43;;
21639;SDS011;10981;45.462;10.974;2023-05-20T00:28:19;8.38;;;5.60;;
21639;SDS011;10981;45.462;10.974;2023-05-20T00:30:49;8.20;;;5.05;;
21639;SDS011;10981;45.462;10.974;2023-05-20T00:33:18;8.73;;;5.53;;
21639;SDS011;10981;45.462;10.974;2023-05-20T00:35:46;7.05;;;4.93;;
21639;SDS011;10981;45.462;10.974;2023-05-20T00:38:14;8.55;;;5.10;;
21639;SDS011;10981;45.462;10.974;2023-05-20T00:40:43;6.95;;;5.35;;
21639;SDS011;10981;45.462;10.974;2023-05-20T00:43:11;6.80;;;5.03;;
21639;SDS011;10981;45.462;10.974;2023-05-20T00:45:40;6.82;;;4.45;;
21639;SDS011;10981;45.462;10.974;2023-05-20T00:48:08;6.38;;;4.43;;
21639;SDS011;10981;45.462;10.974;2023-05-20T00:50:37;11.23;;;4.55;;
21639;SDS011;10981;45.462;10.974;2023-05-20T00:53:06;6.55;;;5.22;;
21639;SDS011;10981;45.462;10.974;2023-05-20T00:55:35;6.13;;;4.70;;
21639;SDS011;10981;45.462;10.974;2023-05-20T00:58:04;7.03;;;4.57;;
21639;SDS011;10981;45.462;10.974;2023-05-20T01:00:33;8.02;;;4.72;;
21639;SDS011;10981;45.462;10.974;2023-05-20T01:03:01;8.82;;;5.03;;
21639;SDS011;10981;45.462;10.974;2023-05-20T01:05:30;7.22;;;4.82;;
21639;SDS011;10981;45.462;10.974;2023-05-20T01:07:59;6.95;;;4.90;;
21639;SDS011;10981;45.462;10.974;2023-05-20T01:10:28;6.68;;;4.30;;
21639;SDS011;10981;45.462;10.974;2023-05-20T01:12:59;8.60;;;6.35;;
21639;SDS011;10981;45.462;10.974;2023-05-20T01:15:31;5.70;;;4.22;;
21639;SDS011;10981;45.462;10.974;2023-05-20T01:18:01;6.32;;;4.75;;
21639;SDS011;10981;45.462;10.974;2023-05-20T01:20:35;5.57;;;4.50;;
21639;SDS011;10981;45.462;10.974;2023-05-20T01:25:57;7.32;;;4.85;;
21639;SDS011;10981;45.462;10.974;2023-05-20T01:28:25;5.85;;;4.22;;
21639;SDS011;10981;45.462;10.974;2023-05-20T01:30:57;6.97;;;4.50;;
21639;SDS011;10981;45.462;10.974;2023-05-20T01:33:28;6.28;;;4.82;;
21639;SDS011;10981;45.462;10.974;2023-05-20T01:36:00;7.65;;;4.60;;
21639;SDS011;10981;45.462;10.974;2023-05-20T01:38:28;6.97;;;4.45;;
21639;SDS011;10981;45.462;10.974;2023-05-20T01:40:57;9.63;;;4.45;;
21639;SDS011;10981;45.462;10.974;2023-05-20T01:43:27;7.95;;;4.65;;
21639;SDS011;10981;45.462;10.974;2023-05-20T01:45:56;5.63;;;4.00;;
21639;SDS011;10981;45.462;10.974;2023-05-20T01:48:25;6.18;;;4.43;;
21639;SDS011;10981;45.462;10.974;2023-05-20T01:50:54;9.38;;;4.80;;
21639;SDS011;10981;45.462;10.974;2023-05-20T01:53:22;7.72;;;4.85;;
21639;SDS011;10981;45.462;10.974;2023-05-20T01:55:50;8.80;;;4.63;;
21639;SDS011;10981;45.462;10.974;2023-05-20T01:58:19;7.25;;;4.38;;
21639;SDS011;10981;45.462;10.974;2023-05-20T02:00:47;4.95;;;3.78;;
21639;SDS011;10981;45.462;10.974;2023-05-20T02:03:15;7.18;;;4.32;;
21639;SDS011;10981;45.462;10.974;2023-05-20T02:05:44;5.13;;;4.43;;
21639;SDS011;10981;45.462;10.974;2023-05-20T02:08:12;5.90;;;4.20;;
21639;SDS011;10981;45.462;10.974;2023-05-20T02:10:40;6.30;;;5.03;;
21639;SDS011;10981;45.462;10.974;2023-05-20T02:13:11;7.13;;;4.47;;
21639;SDS011;10981;45.462;10.974;2023-05-20T02:15:40;7.57;;;4.65;;
21639;SDS011;10981;45.462;10.974;2023-05-20T02:18:09;6.25;;;4.50;;
21639;SDS011;10981;45.462;10.974;2023-05-20T02:20:38;6.75;;;4.93;;
21639;SDS011;10981;45.462;10.974;2023-05-20T02:23:07;6.90;;;4.50;;
21639;SDS011;10981;45.462;10.974;2023-05-20T02:25:36;7.32;;;5.28;;
21639;SDS011;10981;45.462;10.974;2023-05-20T02:28:04;5.82;;;4.70;;
21639;SDS011;10981;45.462;10.974;2023-05-20T02:30:37;6.07;;;5.10;;
21639;SDS011;10981;45.462;10.974;2023-05-20T02:33:05;6.75;;;4.72;;
21639;SDS011;10981;45.462;10.974;2023-05-20T02:35:35;6.68;;;4.65;;
21639;SDS011;10981;45.462;10.974;2023-05-20T02:38:04;8.05;;;5.03;;
21639;SDS011;10981;45.462;10.974;2023-05-20T02:40:32;5.93;;;4.60;;
21639;SDS011;10981;45.462;10.974;2023-05-20T02:43:01;5.88;;;4.45;;
21639;SDS011;10981;45.462;10.974;2023-05-20T02:45:29;5.97;;;4.38;;
21639;SDS011;10981;45.462;10.974;2023-05-20T02:47:58;5.97;;;4.88;;
21639;SDS011;10981;45.462;10.974;2023-05-20T02:50:27;7.57;;;4.25;;
21639;SDS011;10981;45.462;10.974;2023-05-20T02:52:55;4.65;;;3.92;;
21639;SDS011;10981;45.462;10.974;2023-05-20T02:55:23;5.65;;;4.55;;
21639;SDS011;10981;45.462;10.974;2023-05-20T02:57:52;6.60;;;4.85;;
21639;SDS011;10981;45.462;10.974;2023-05-20T03:00:20;6.47;;;5.63;;
21639;SDS011;10981;45.462;10.974;2023-05-20T03:02:49;6.68;;;4.63;;
21639;SDS011;10981;45.462;10.974;2023-05-20T03:05:18;5.93;;;4.18;;
21639;SDS011;10981;45.462;10.974;2023-05-20T03:07:46;5.93;;;4.60;;
21639;SDS011;10981;45.462;10.974;2023-05-20T03:10:15;5.63;;;4.30;;
21639;SDS011;10981;45.462;10.974;2023-05-20T03:12:43;7.53;;;5.32;;
21639;SDS011;10981;45.462;10.974;2023-05-20T03:15:11;7.35;;;5.18;;
21639;SDS011;10981;45.462;10.974;2023-05-20T03:17:40;5.80;;;4.05;;
21639;SDS011;10981;45.462;10.974;2023-05-20T03:20:08;5.55;;;4.60;;
21639;SDS011;10981;45.462;10.974;2023-05-20T03:22:39;5.68;;;4.47;;
21639;SDS011;10981;45.462;10.974;2023-05-20T03:25:07;7.43;;;4.55;;
21639;SDS011;10981;45.462;10.974;2023-05-20T03:27:36;6.13;;;3.97;;
21639;SDS011;10981;45.462;10.974;2023-05-20T03:30:05;5.38;;;4.45;;
21639;SDS011;10981;45.462;10.974;2023-05-20T03:32:34;4.97;;;4.45;;
21639;SDS011;10981;45.462;10.974;2023-05-20T03:35:03;8.00;;;4.70;;
21639;SDS011;10981;45.462;10.974;2023-05-20T03:37:32;6.47;;;5.38;;
21639;SDS011;10981;45.462;10.974;2023-05-20T03:40:01;5.93;;;4.75;;
21639;SDS011;10981;45.462;10.974;2023-05-20T03:42:35;8.70;;;4.95;;
21639;SDS011;10981;45.462;10.974;2023-05-20T03:45:04;6.55;;;4.50;;
21639;SDS011;10981;45.462;10.974;2023-05-20T03:47:39;5.50;;;4.65;;
21639;SDS011;10981;45.462;10.974;2023-05-20T03:50:08;8.20;;;4.50;;
21639;SDS011;10981;45.462;10.974;2023-05-20T03:52:37;6.47;;;5.00;;
21639;SDS011;10981;45.462;10.974;2023-05-20T03:55:07;5.82;;;4.65;;
21639;SDS011;10981;45.462;10.974;2023-05-20T03:57:35;7.85;;;5.00;;
21639;SDS011;10981;45.462;10.974;2023-05-20T04:00:04;6.57;;;5.07;;
21639;SDS011;10981;45.462;10.974;2023-05-20T04:02:42;6.75;;;5.15;;
21639;SDS011;10981;45.462;10.974;2023-05-20T04:05:14;7.95;;;4.95;;
21639;SDS011;10981;45.462;10.974;2023-05-20T04:07:43;6.28;;;5.13;;
21639;SDS011;10981;45.462;10.974;2023-05-20T04:10:17;8.98;;;5.40;;
21639;SDS011;10981;45.462;10.974;2023-05-20T04:12:47;8.02;;;5.50;;
21639;SDS011;10981;45.462;10.974;2023-05-20T04:15:15;6.00;;;4.85;;
21639;SDS011;10981;45.462;10.974;2023-05-20T04:17:56;11.25;;;5.80;;
21639;SDS011;10981;45.462;10.974;2023-05-20T04:20:24;8.23;;;5.55;;
21639;SDS011;10981;45.462;10.974;2023-05-20T04:22:55;7.28;;;5.40;;
21639;SDS011;10981;45.462;10.974;2023-05-20T04:25:24;9.00;;;5.57;;
21639;SDS011;10981;45.462;10.974;2023-05-20T04:27:54;8.18;;;5.18;;
21639;SDS011;10981;45.462;10.974;2023-05-20T04:30:24;8.65;;;5.88;;
21639;SDS011;10981;45.462;10.974;2023-05-20T04:32:53;7.90;;;5.63;;
21639;SDS011;10981;45.462;10.974;2023-05-20T04:35:22;8.55;;;5.78;;
21639;SDS011;10981;45.462;10.974;2023-05-20T04:37:54;6.60;;;5.57;;
21639;SDS011;10981;45.462;10.974;2023-05-20T04:40:23;8.68;;;5.57;;
21639;SDS011;10981;45.462;10.974;2023-05-20T04:42:52;15.52;;;6.22;;
21639;SDS011;10981;45.462;10.974;2023-05-20T04:45:20;9.45;;;6.35;;
21639;SDS011;10981;45.462;10.974;2023-05-20T04:47:50;11.05;;;6.55;;
21639;SDS011;10981;45.462;10.974;2023-05-20T04:50:19;6.45;;;5.05;;
21639;SDS011;10981;45.462;10.974;2023-05-20T04:52:48;8.57;;;5.82;;
21639;SDS011;10981;45.462;10.974;2023-05-20T04:55:16;6.38;;;5.70;;
21639;SDS011;10981;45.462;10.974;2023-05-20T04:57:46;8.57;;;5.88;;
21639;SDS011;10981;45.462;10.974;2023-05-20T05:00:14;8.85;;;5.75;;
21639;SDS011;10981;45.462;10.974;2023-05-20T05:02:42;12.77;;;5.90;;
21639;SDS011;10981;45.462;10.974;2023-05-20T05:05:11;8.68;;;6.20;;
21639;SDS011;10981;45.462;10.974;2023-05-20T05:07:39;8.68;;;6.07;;
21639;SDS011;10981;45.462;10.974;2023-05-20T05:10:07;8.60;;;6.00;;
21639;SDS011;10981;45.462;10.974;2023-05-20T05:12:36;12.80;;;6.03;;
21639;SDS011;10981;45.462;10.974;2023-05-20T05:15:05;10.35;;;6.10;;
21639;SDS011;10981;45.462;10.974;2023-05-20T05:17:33;7.57;;;5.28;;
21639;SDS011;10981;45.462;10.974;2023-05-20T05:20:03;8.95;;;5.07;;
21639;SDS011;10981;45.462;10.974;2023-05-20T05:22:32;8.50;;;5.97;;
21639;SDS011;10981;45.462;10.974;2023-05-20T05:25:03;11.07;;;5.78;;
21639;SDS011;10981;45.462;10.974;2023-05-20T05:27:32;7.13;;;4.95;;
21639;SDS011;10981;45.462;10.974;2023-05-20T05:30:05;10.52;;;5.97;;
21639;SDS011;10981;45.462;10.974;2023-05-20T05:32:35;9.20;;;6.13;;
21639;SDS011;10981;45.462;10.974;2023-05-20T05:35:04;8.43;;;5.85;;
21639;SDS011;10981;45.462;10.974;2023-05-20T05:37:34;9.20;;;5.80;;
21639;SDS011;10981;45.462;10.974;2023-05-20T05:40:04;9.57;;;6.28;;
21639;SDS011;10981;45.462;10.974;2023-05-20T05:42:34;8.30;;;5.68;;
21639;SDS011;10981;45.462;10.974;2023-05-20T05:45:02;8.68;;;5.30;;
21639;SDS011;10981;45.462;10.974;2023-05-20T05:47:31;6.78;;;5.47;;
21639;SDS011;10981;45.462;10.974;2023-05-20T05:50:00;8.52;;;5.80;;
21639;SDS011;10981;45.462;10.974;2023-05-20T05:52:31;8.18;;;5.93;;
21639;SDS011;10981;45.462;10.974;2023-05-20T05:55:01;7.47;;;5.53;;
21639;SDS011;10981;45.462;10.974;2023-05-20T05:57:30;8.73;;;6.07;;
21639;SDS011;10981;45.462;10.974;2023-05-20T06:00:00;7.78;;;5.60;;
21639;SDS011;10981;45.462;10.974;2023-05-20T06:02:32;6.05;;;5.38;;
21639;SDS011;10981;45.462;10.974;2023-05-20T06:05:02;10.68;;;6.15;;
21639;SDS011;10981;45.462;10.974;2023-05-20T06:07:31;14.00;;;6.30;;
21639;SDS011;10981;45.462;10.974;2023-05-20T06:10:00;7.60;;;5.57;;
21639;SDS011;10981;45.462;10.974;2023-05-20T06:12:28;10.15;;;5.75;;
21639;SDS011;10981;45.462;10.974;2023-05-20T06:14:57;9.38;;;5.93;;
21639;SDS011;10981;45.462;10.974;2023-05-20T06:17:25;9.55;;;6.05;;
21639;SDS011;10981;45.462;10.974;2023-05-20T06:19:53;9.88;;;6.05;;
21639;SDS011;10981;45.462;10.974;2023-05-20T06:22:22;7.45;;;5.90;;
21639;SDS011;10981;45.462;10.974;2023-05-20T06:24:52;8.40;;;5.97;;
21639;SDS011;10981;45.462;10.974;2023-05-20T06:27:22;7.13;;;6.03;;
21639;SDS011;10981;45.462;10.974;2023-05-20T06:29:50;9.43;;;6.22;;
21639;SDS011;10981;45.462;10.974;2023-05-20T06:32:19;8.52;;;5.63;;
21639;SDS011;10981;45.462;10.974;2023-05-20T06:34:47;10.35;;;5.85;;
21639;SDS011;10981;45.462;10.974;2023-05-20T06:37:16;8.05;;;6.18;;
21639;SDS011;10981;45.462;10.974;2023-05-20T06:39:45;8.68;;;6.20;;
21639;SDS011;10981;45.462;10.974;2023-05-20T06:42:17;7.85;;;5.38;;
21639;SDS011;10981;45.462;10.974;2023-05-20T06:45:01;7.13;;;5.60;;
21639;SDS011;10981;45.462;10.974;2023-05-20T06:47:56;7.45;;;5.80;;
21639;SDS011;10981;45.462;10.974;2023-05-20T06:50:25;7.53;;;5.45;;
21639;SDS011;10981;45.462;10.974;2023-05-20T06:52:54;10.07;;;6.85;;
21639;SDS011;10981;45.462;10.974;2023-05-20T06:55:22;8.55;;;6.45;;
21639;SDS011;10981;45.462;10.974;2023-05-20T06:57:51;8.70;;;6.03;;
21639;SDS011;10981;45.462;10.974;2023-05-20T07:00:20;7.70;;;6.18;;
21639;SDS011;10981;45.462;10.974;2023-05-20T07:02:50;11.45;;;6.25;;
21639;SDS011;10981;45.462;10.974;2023-05-20T07:05:19;11.00;;;6.43;;
21639;SDS011;10981;45.462;10.974;2023-05-20T07:07:47;9.23;;;6.15;;
21639;SDS011;10981;45.462;10.974;2023-05-20T07:10:16;11.90;;;6.50;;
21639;SDS011;10981;45.462;10.974;2023-05-20T07:12:44;13.50;;;6.90;;
21639;SDS011;10981;45.462;10.974;2023-05-20T07:15:13;11.52;;;6.60;;
21639;SDS011;10981;45.462;10.974;2023-05-20T07:17:42;11.27;;;7.05;;
21639;SDS011;10981;45.462;10.974;2023-05-20T07:20:11;12.82;;;7.18;;
21639;SDS011;10981;45.462;10.974;2023-05-20T07:22:39;9.95;;;6.07;;
21639;SDS011;10981;45.462;10.974;2023-05-20T07:25:12;10.52;;;6.88;;
21639;SDS011;10981;45.462;10.974;2023-05-20T07:27:41;10.38;;;6.70;;
21639;SDS011;10981;45.462;10.974;2023-05-20T07:30:09;9.15;;;6.53;;
21639;SDS011;10981;45.462;10.974;2023-05-20T07:32:39;10.73;;;6.60;;
21639;SDS011;10981;45.462;10.974;2023-05-20T07:35:08;8.95;;;6.28;;
21639;SDS011;10981;45.462;10.974;2023-05-20T07:37:36;9.43;;;6.78;;
21639;SDS011;10981;45.462;10.974;2023-05-20T07:40:05;9.10;;;6.45;;
21639;SDS011;10981;45.462;10.974;2023-05-20T07:42:34;15.35;;;7.03;;
21639;SDS011;10981;45.462;10.974;2023-05-20T07:45:02;8.48;;;6.70;;
21639;SDS011;10981;45.462;10.974;2023-05-20T07:47:32;10.50;;;6.78;;
21639;SDS011;10981;45.462;10.974;2023-05-20T07:50:01;12.40;;;7.35;;
21639;SDS011;10981;45.462;10.974;2023-05-20T07:52:33;9.93;;;6.82;;
21639;SDS011;10981;45.462;10.974;2023-05-20T07:55:22;13.18;;;6.82;;
21639;SDS011;10981;45.462;10.974;2023-05-20T07:57:51;10.48;;;7.13;;
21639;SDS011;10981;45.462;10.974;2023-05-20T08:00:21;10.07;;;6.40;;
21639;SDS011;10981;45.462;10.974;2023-05-20T08:02:50;12.13;;;8.00;;
21639;SDS011;10981;45.462;10.974;2023-05-20T08:05:25;12.75;;;7.32;;
21639;SDS011;10981;45.462;10.974;2023-05-20T08:07:54;9.95;;;6.15;;
21639;SDS011;10981;45.462;10.974;2023-05-20T08:10:25;9.07;;;5.88;;
21639;SDS011;10981;45.462;10.974;2023-05-20T08:12:54;7.95;;;5.88;;
21639;SDS011;10981;45.462;10.974;2023-05-20T08:15:23;7.97;;;5.53;;
21639;SDS011;10981;45.462;10.974;2023-05-20T08:17:51;8.55;;;5.38;;
21639;SDS011;10981;45.462;10.974;2023-05-20T08:20:21;7.38;;;5.78;;
21639;SDS011;10981;45.462;10.974;2023-05-20T08:22:49;7.13;;;5.35;;
21639;SDS011;10981;45.462;10.974;2023-05-20T08:25:17;6.32;;;5.38;;
21639;SDS011;10981;45.462;10.974;2023-05-20T08:27:46;7.63;;;5.80;;
21639;SDS011;10981;45.462;10.974;2023-05-20T08:30:16;8.65;;;6.13;;
21639;SDS011;10981;45.462;10.974;2023-05-20T08:32:44;7.05;;;6.03;;
21639;SDS011;10981;45.462;10.974;2023-05-20T08:35:13;8.13;;;6.65;;
21639;SDS011;10981;45.462;10.974;2023-05-20T08:37:42;7.10;;;5.85;;
21639;SDS011;10981;45.462;10.974;2023-05-20T08:40:10;10.15;;;6.20;;
21639;SDS011;10981;45.462;10.974;2023-05-20T08:42:40;8.60;;;6.60;;
21639;SDS011;10981;45.462;10.974;2023-05-20T08:45:11;8.98;;;6.32;;
21639;SDS011;10981;45.462;10.974;2023-05-20T08:47:45;11.68;;;7.13;;
21639;SDS011;10981;45.462;10.974;2023-05-20T08:50:14;9.05;;;6.88;;
21639;SDS011;10981;45.462;10.974;2023-05-20T08:52:44;12.05;;;6.90;;
21639;SDS011;10981;45.462;10.974;2023-05-20T08:58:13;11.50;;;7.75;;
21639;SDS011;10981;45.462;10.974;2023-05-20T09:00:42;14.00;;;8.63;;
21639;SDS011;10981;45.462;10.974;2023-05-20T09:03:10;11.88;;;7.50;;
21639;SDS011;10981;45.462;10.974;2023-05-20T09:05:38;9.98;;;7.93;;
21639;SDS011;10981;45.462;10.974;2023-05-20T09:08:08;8.98;;;7.85;;
21639;SDS011;10981;45.462;10.974;2023-05-20T09:10:38;9.57;;;7.30;;
21639;SDS011;10981;45.462;10.974;2023-05-20T09:13:08;7.75;;;6.68;;
21639;SDS011;10981;45.462;10.974;2023-05-20T09:15:37;12.35;;;7.60;;
21639;SDS011;10981;45.462;10.974;2023-05-20T09:18:06;9.82;;;7.28;;
21639;SDS011;10981;45.462;10.974;2023-05-20T09:20:36;10.02;;;7.35;;
21639;SDS011;10981;45.462;10.974;2023-05-20T09:23:05;11.07;;;7.95;;
21639;SDS011;10981;45.462;10.974;2023-05-20T09:25:34;11.25;;;8.07;;
21639;SDS011;10981;45.462;10.974;2023-05-20T09:28:06;12.40;;;8.73;;
21639;SDS011;10981;45.462;10.974;2023-05-20T09:30:35;9.55;;;8.45;;
21639;SDS011;10981;45.462;10.974;2023-05-20T09:33:04;13.38;;;9.07;;
21639;SDS011;10981;45.462;10.974;2023-05-20T09:35:34;10.77;;;8.40;;
21639;SDS011;10981;45.462;10.974;2023-05-20T09:38:05;12.80;;;9.30;;
21639;SDS011;10981;45.462;10.974;2023-05-20T09:40:35;13.13;;;9.13;;
21639;SDS011;10981;45.462;10.974;2023-05-20T09:43:04;11.77;;;8.75;;
21639;SDS011;10981;45.462;10.974;2023-05-20T09:45:34;11.85;;;9.32;;
21639;SDS011;10981;45.462;10.974;2023-05-20T09:48:04;13.45;;;9.98;;
21639;SDS011;10981;45.462;10.974;2023-05-20T09:50:35;12.43;;;8.75;;
21639;SDS011;10981;45.462;10.974;2023-05-20T09:53:03;14.63;;;9.40;;
21639;SDS011;10981;45.462;10.974;2023-05-20T09:55:32;12.85;;;9.32;;
21639;SDS011;10981;45.462;10.974;2023-05-20T09:58:01;10.52;;;8.90;;
21639;SDS011;10981;45.462;10.974;2023-05-20T10:00:30;12.77;;;9.65;;
21639;SDS011;10981;45.462;10.974;2023-05-20T10:02:58;11.25;;;8.88;;
21639;SDS011;10981;45.462;10.974;2023-05-20T10:05:29;15.98;;;9.50;;
21639;SDS011;10981;45.462;10.974;2023-05-20T10:18:28;11.73;;;9.45;;
21639;SDS011;10981;45.462;10.974;2023-05-20T10:20:57;14.13;;;8.93;;
21639;SDS011;10981;45.462;10.974;2023-05-20T10:23:29;10.80;;;9.15;;
21639;SDS011;10981;45.462;10.974;2023-05-20T10:25:57;14.00;;;10.45;;
21639;SDS011;10981;45.462;10.974;2023-05-20T10:28:32;10.27;;;8.35;;
21639;SDS011;10981;45.462;10.974;2023-05-20T10:31:19;10.25;;;8.85;;
21639;SDS011;10981;45.462;10.974;2023-05-20T10:36:25;16.75;;;9.80;;
21639;SDS011;10981;45.462;10.974;2023-05-20T10:38:57;13.50;;;9.20;;
21639;SDS011;10981;45.462;10.974;2023-05-20T10:41:26;13.07;;;10.20;;
21639;SDS011;10981;45.462;10.974;2023-05-20T10:43:59;13.70;;;10.05;;
21639;SDS011;10981;45.462;10.974;2023-05-20T10:46:29;14.23;;;10.63;;
21639;SDS011;10981;45.462;10.974;2023-05-20T10:49:18;14.30;;;11.15;;
21639;SDS011;10981;45.462;10.974;2023-05-20T10:51:53;14.43;;;11.50;;
21639;SDS011;10981;45.462;10.974;2023-05-20T10:54:21;15.57;;;11.65;;
21639;SDS011;10981;45.462;10.974;2023-05-20T10:56:50;17.02;;;12.02;;
21639;SDS011;10981;45.462;10.974;2023-05-20T10:59:20;15.25;;;11.75;;
21639;SDS011;10981;45.462;10.974;2023-05-20T11:01:49;15.43;;;11.23;;
21639;SDS011;10981;45.462;10.974;2023-05-20T11:04:17;15.80;;;11.52;;
21639;SDS011;10981;45.462;10.974;2023-05-20T11:06:49;14.50;;;11.68;;
21639;SDS011;10981;45.462;10.974;2023-05-20T11:09:21;20.02;;;12.77;;
21639;SDS011;10981;45.462;10.974;2023-05-20T11:11:50;14.98;;;11.07;;
21639;SDS011;10981;45.462;10.974;2023-05-20T11:14:20;15.18;;;11.70;;
21639;SDS011;10981;45.462;10.974;2023-05-20T11:16:52;15.13;;;10.82;;
21639;SDS011;10981;45.462;10.974;2023-05-20T11:19:25;14.43;;;11.88;;
21639;SDS011;10981;45.462;10.974;2023-05-20T11:21:54;15.75;;;10.80;;
21639;SDS011;10981;45.462;10.974;2023-05-20T11:24:26;19.45;;;13.20;;
21639;SDS011;10981;45.462;10.974;2023-05-20T11:26:55;19.50;;;12.32;;
21639;SDS011;10981;45.462;10.974;2023-05-20T11:29:25;15.20;;;12.50;;
21639;SDS011;10981;45.462;10.974;2023-05-20T11:31:55;16.20;;;11.43;;
21639;SDS011;10981;45.462;10.974;2023-05-20T11:34:23;18.60;;;12.05;;
21639;SDS011;10981;45.462;10.974;2023-05-20T11:36:55;15.48;;;11.85;;
21639;SDS011;10981;45.462;10.974;2023-05-20T11:39:25;17.50;;;12.00;;
21639;SDS011;10981;45.462;10.974;2023-05-20T11:41:56;15.95;;;12.63;;
21639;SDS011;10981;45.462;10.974;2023-05-20T11:44:25;18.17;;;11.85;;
21639;SDS011;10981;45.462;10.974;2023-05-20T11:46:58;14.52;;;11.13;;
21639;SDS011;10981;45.462;10.974;2023-05-20T11:49:28;17.60;;;10.85;;
21639;SDS011;10981;45.462;10.974;2023-05-20T11:51:57;17.77;;;12.90;;
21639;SDS011;10981;45.462;10.974;2023-05-20T11:54:25;14.80;;;11.93;;
21639;SDS011;10981;45.462;10.974;2023-05-20T11:56:54;18.15;;;12.13;;
21639;SDS011;10981;45.462;10.974;2023-05-20T11:59:23;18.02;;;11.93;;
21639;SDS011;10981;45.462;10.974;2023-05-20T12:01:51;17.77;;;11.18;;
21639;SDS011;10981;45.462;10.974;2023-05-20T12:04:19;15.23;;;11.30;;
21639;SDS011;10981;45.462;10.974;2023-05-20T12:06:48;17.27;;;11.73;;
21639;SDS011;10981;45.462;10.974;2023-05-20T12:09:17;16.88;;;12.18;;
21639;SDS011;10981;45.462;10.974;2023-05-20T12:11:46;15.65;;;11.45;;
21639;SDS011;10981;45.462;10.974;2023-05-20T12:14:14;16.38;;;11.70;;
21639;SDS011;10981;45.462;10.974;2023-05-20T12:16:42;20.23;;;12.48;;
21639;SDS011;10981;45.462;10.974;2023-05-20T12:19:11;15.95;;;11.63;;
21639;SDS011;10981;45.462;10.974;2023-05-20T12:21:39;14.85;;;12.50;;
21639;SDS011;10981;45.462;10.974;2023-05-20T12:24:07;20.50;;;12.45;;
21639;SDS011;10981;45.462;10.974;2023-05-20T12:26:37;17.75;;;11.77;;
21639;SDS011;10981;45.462;10.974;2023-05-20T12:29:06;14.80;;;11.35;;
21639;SDS011;10981;45.462;10.974;2023-05-20T12:31:34;14.52;;;11.98;;
21639;SDS011;10981;45.462;10.974;2023-05-20T12:34:03;15.88;;;12.30;;
21639;SDS011;10981;45.462;10.974;2023-05-20T12:36:31;18.38;;;12.52;;
21639;SDS011;10981;45.462;10.974;2023-05-20T12:38:59;15.35;;;11.23;;
21639;SDS011;10981;45.462;10.974;2023-05-20T12:41:28;17.85;;;12.10;;
21639;SDS011;10981;45.462;10.974;2023-05-20T12:43:56;16.40;;;12.25;;
21639;SDS011;10981;45.462;10.974;2023-05-20T12:46:25;13.73;;;11.45;;
21639;SDS011;10981;45.462;10.974;2023-05-20T12:48:53;13.27;;;10.75;;
21639;SDS011;10981;45.462;10.974;2023-05-20T12:51:21;15.90;;;11.35;;
21639;SDS011;10981;45.462;10.974;2023-05-20T12:53:50;14.52;;;11.25;;
21639;SDS011;10981;45.462;10.974;2023-05-20T12:56:18;17.13;;;10.93;;
21639;SDS011;10981;45.462;10.974;2023-05-20T12:58:47;13.95;;;10.10;;
21639;SDS011;10981;45.462;10.974;2023-05-20T13:01:15;16.42;;;10.55;;
21639;SDS011;10981;45.462;10.974;2023-05-20T13:03:44;16.33;;;10.82;;
21639;SDS011;10981;45.462;10.974;2023-05-20T13:06:13;14.57;;;11.55;;
21639;SDS011;10981;45.462;10.974;2023-05-20T13:08:41;15.73;;;11.38;;
21639;SDS011;10981;45.462;10.974;2023-05-20T13:11:11;14.25;;;11.40;;
21639;SDS011;10981;45.462;10.974;2023-05-20T13:13:39;16.48;;;10.75;;
21639;SDS011;10981;45.462;10.974;2023-05-20T13:16:08;14.82;;;11.50;;
21639;SDS011;10981;45.462;10.974;2023-05-20T13:18:36;21.10;;;12.73;;
21639;SDS011;10981;45.462;10.974;2023-05-20T13:21:05;15.13;;;11.63;;
21639;SDS011;10981;45.462;10.974;2023-05-20T13:23:33;17.75;;;11.82;;
21639;SDS011;10981;45.462;10.974;2023-05-20T13:26:03;15.38;;;12.23;;
21639;SDS011;10981;45.462;10.974;2023-05-20T13:28:31;17.45;;;11.63;;
21639;SDS011;10981;45.462;10.974;2023-05-20T13:31:01;15.35;;;12.65;;
21639;SDS011;10981;45.462;10.974;2023-05-20T13:33:31;18.73;;;11.73;;
21639;SDS011;10981;45.462;10.974;2023-05-20T13:35:59;16.55;;;12.45;;
21639;SDS011;10981;45.462;10.974;2023-05-20T13:38:28;18.88;;;12.85;;
21639;SDS011;10981;45.462;10.974;2023-05-20T13:40:56;16.77;;;13.10;;
21639;SDS011;10981;45.462;10.974;2023-05-20T13:43:25;17.75;;;13.57;;
21639;SDS011;10981;45.462;10.974;2023-05-20T13:45:54;18.63;;;14.52;;
21639;SDS011;10981;45.462;10.974;2023-05-20T13:48:23;18.50;;;13.40;;
21639;SDS011;10981;45.462;10.974;2023-05-20T13:50:51;18.83;;;13.50;;
21639;SDS011;10981;45.462;10.974;2023-05-20T13:53:19;22.85;;;13.70;;
21639;SDS011;10981;45.462;10.974;2023-05-20T13:55:48;18.30;;;13.68;;
21639;SDS011;10981;45.462;10.974;2023-05-20T13:58:17;22.70;;;14.40;;
21639;SDS011;10981;45.462;10.974;2023-05-20T14:00:45;21.77;;;14.27;;
21639;SDS011;10981;45.462;10.974;2023-05-20T14:03:14;18.67;;;12.82;;
21639;SDS011;10981;45.462;10.974;2023-05-20T14:05:42;24.55;;;15.55;;
21639;SDS011;10981;45.462;10.974;2023-05-20T14:08:11;22.27;;;14.32;;
21639;SDS011;10981;45.462;10.974;2023-05-20T14:10:39;19.08;;;14.20;;
21639;SDS011;10981;45.462;10.974;2023-05-20T14:13:07;16.48;;;13.68;;
21639;SDS011;10981;45.462;10.974;2023-05-20T14:15:36;19.83;;;14.35;;
21639;SDS011;10981;45.462;10.974;2023-05-20T14:18:05;22.85;;;14.68;;
21639;SDS011;10981;45.462;10.974;2023-05-20T14:20:33;19.88;;;14.13;;
21639;SDS011;10981;45.462;10.974;2023-05-20T14:23:02;20.17;;;15.07;;
21639;SDS011;10981;45.462;10.974;2023-05-20T14:25:30;19.75;;;14.40;;
21639;SDS011;10981;45.462;10.974;2023-05-20T14:27:58;21.40;;;14.63;;
21639;SDS011;10981;45.462;10.974;2023-05-20T14:30:27;18.13;;;14.38;;
21639;SDS011;10981;45.462;10.974;2023-05-20T14:32:55;19.58;;;14.38;;
21639;SDS011;10981;45.462;10.974;2023-05-20T14:35:24;19.65;;;14.90;;
21639;SDS011;10981;45.462;10.974;2023-05-20T14:37:52;21.02;;;15.10;;
21639;SDS011;10981;45.462;10.974;2023-05-20T14:40:20;21.25;;;14.30;;
21639;SDS011;10981;45.462;10.974;2023-05-20T14:42:48;20.00;;;13.88;;
21639;SDS011;10981;45.462;10.974;2023-05-20T14:45:18;22.38;;;14.98;;
21639;SDS011;10981;45.462;10.974;2023-05-20T14:47:47;20.20;;;14.38;;
21639;SDS011;10981;45.462;10.974;2023-05-20T14:50:15;20.00;;;14.77;;
21639;SDS011;10981;45.462;10.974;2023-05-20T14:52:49;18.25;;;13.77;;
21639;SDS011;10981;45.462;10.974;2023-05-20T14:55:18;20.95;;;14.55;;